createdAt,value
2024-04-08T00:01:28.669Z,16.8
2024-04-08T00:06:34.873Z,16.8
2024-04-08T00:11:41.104Z,16.7
2024-04-08T00:16:47.280Z,16.7
2024-04-08T00:21:53.492Z,16.7
2024-04-08T00:26:59.694Z,16.6
2024-04-08T00:32:05.905Z,16.6
2024-04-08T00:37:12.110Z,16.6
2024-04-08T00:42:18.329Z,16.5
2024-04-08T00:47:24.577Z,16.5
2024-04-08T00:52:30.737Z,16.5
2024-04-08T00:57:36.948Z,16.5
2024-04-08T01:02:43.215Z,16.4
2024-04-08T01:07:49.354Z,16.4
2024-04-08T01:12:55.572Z,16.4
2024-04-08T01:18:01.773Z,16.3
2024-04-08T01:23:07.983Z,16.3
2024-04-08T01:28:14.234Z,16.2
2024-04-08T01:33:20.396Z,16.2
2024-04-08T01:38:26.614Z,16.2
2024-04-08T01:43:32.814Z,16.1
2024-04-08T01:48:39.023Z,16.1
2024-04-08T01:53:45.261Z,16.1
2024-04-08T01:58:51.435Z,16.1
2024-04-08T02:03:57.651Z,16.1
2024-04-08T02:09:03.852Z,16.1
2024-04-08T02:14:10.071Z,16.1
2024-04-08T02:19:16.276Z,16.1
2024-04-08T02:24:22.486Z,16.1
2024-04-08T02:29:28.711Z,16.1
2024-04-08T02:34:34.897Z,16.0
2024-04-08T02:39:41.107Z,16.0
2024-04-08T02:44:47.504Z,16.0
2024-04-08T02:49:53.521Z,16.0
2024-04-08T02:54:59.740Z,16.0
2024-04-08T03:00:05.937Z,16.0
2024-04-08T03:05:12.146Z,16.0
2024-04-08T03:10:18.354Z,15.9
2024-04-08T03:15:24.564Z,15.9
2024-04-08T03:20:30.796Z,15.9
2024-04-08T03:25:36.981Z,15.9
2024-04-08T03:30:43.186Z,15.9
2024-04-08T03:35:49.478Z,15.9
2024-04-08T03:40:55.599Z,15.9
2024-04-08T03:46:01.814Z,15.9
2024-04-08T03:51:08.019Z,15.9
2024-04-08T03:56:14.225Z,15.9
2024-04-08T04:01:20.451Z,15.9
2024-04-08T04:06:26.651Z,15.9
2024-04-08T04:11:32.889Z,15.9
2024-04-08T04:16:39.052Z,15.9
2024-04-08T04:21:45.266Z,15.9
2024-04-08T04:26:51.520Z,15.9
2024-04-08T04:31:57.695Z,15.8
2024-04-08T04:37:03.903Z,15.8
2024-04-08T04:42:10.095Z,15.8
2024-04-08T04:47:15.318Z,15.7
2024-04-08T04:52:21.529Z,15.7
2024-04-08T04:57:27.738Z,15.7
2024-04-08T05:02:33.961Z,15.7
2024-04-08T05:07:40.167Z,15.7
2024-04-08T05:12:46.359Z,15.7
2024-04-08T05:22:57.793Z,15.7
2024-04-08T05:28:03.029Z,15.7
2024-04-08T05:33:09.278Z,15.7
2024-04-08T05:38:15.443Z,15.7
2024-04-08T05:43:21.658Z,15.7
2024-04-08T05:48:27.856Z,15.7
2024-04-08T05:53:34.079Z,15.7
2024-04-08T05:58:40.289Z,15.7
2024-04-08T06:03:46.486Z,15.7
2024-04-08T06:08:52.711Z,15.8
2024-04-08T06:13:58.900Z,15.8
2024-04-08T06:19:05.113Z,15.8
2024-04-08T06:24:11.320Z,15.9
2024-04-08T06:29:17.536Z,16.0
2024-04-08T06:34:23.740Z,16.1
2024-04-08T06:39:29.944Z,16.2
2024-04-08T06:44:36.207Z,16.4
2024-04-08T06:49:42.364Z,16.5
2024-04-08T06:54:48.573Z,16.5
2024-04-08T06:59:54.798Z,16.5
2024-04-08T07:05:00.983Z,16.6
2024-04-08T07:10:07.190Z,16.6
2024-04-08T07:15:13.401Z,16.7
2024-04-08T07:20:19.609Z,16.8
2024-04-08T07:25:25.818Z,16.8
2024-04-08T07:30:33.960Z,16.9
2024-04-08T07:35:38.274Z,17.1
2024-04-08T07:40:44.467Z,17.3
2024-04-08T07:45:50.657Z,17.5
2024-04-08T07:50:56.872Z,17.6
2024-04-08T07:56:03.077Z,17.7
2024-04-08T08:01:09.313Z,17.8
2024-04-08T08:06:15.592Z,17.9
2024-04-08T08:11:21.735Z,18.0
2024-04-08T08:16:27.897Z,18.1
2024-04-08T08:21:34.109Z,18.2
2024-04-08T08:26:40.352Z,18.3
2024-04-08T08:31:46.524Z,18.6
2024-04-08T08:36:52.733Z,18.8
2024-04-08T08:41:58.966Z,19.0
2024-04-08T08:47:05.152Z,19.2
2024-04-08T08:52:11.394Z,19.4
2024-04-08T08:57:17.576Z,19.6
2024-04-08T09:02:23.774Z,19.8
2024-04-08T09:07:29.981Z,20.0
2024-04-08T09:12:36.189Z,20.1
2024-04-08T09:17:42.580Z,20.3
2024-04-08T09:22:48.615Z,20.5
2024-04-08T09:27:55.720Z,20.5
2024-04-08T09:33:01.095Z,20.8
2024-04-08T09:38:07.236Z,21.0
2024-04-08T09:43:14.431Z,21.2
2024-04-08T09:48:19.731Z,21.4
2024-04-08T09:53:25.887Z,21.5
2024-04-08T09:58:32.077Z,21.5
2024-04-08T10:03:38.288Z,21.5
2024-04-08T10:08:44.581Z,21.5
2024-04-08T10:13:50.704Z,21.7
2024-04-08T10:18:56.926Z,21.9
2024-04-08T10:24:03.235Z,22.1
2024-04-08T10:29:09.342Z,22.2
2024-04-08T10:34:15.836Z,22.4
2024-04-08T10:39:22.028Z,22.6
2024-04-08T10:44:27.980Z,22.6
2024-04-08T10:49:34.167Z,22.6
2024-04-08T10:54:40.384Z,22.7
2024-04-08T10:59:45.643Z,22.9
2024-04-08T11:04:51.796Z,22.9
2024-04-08T11:09:58.011Z,22.9
2024-04-08T11:15:04.230Z,22.8
2024-04-08T11:20:10.426Z,22.8
2024-04-08T11:25:16.822Z,22.8
2024-04-08T11:30:23.046Z,22.8
2024-04-08T11:35:29.072Z,22.7
2024-04-08T11:40:35.269Z,22.6
2024-04-08T11:45:41.561Z,22.4
2024-04-08T11:50:47.753Z,22.3
2024-04-08T11:55:53.897Z,22.1
2024-04-08T12:01:00.231Z,22.0
2024-04-08T12:06:06.336Z,22.0
2024-04-08T12:11:12.583Z,21.9
2024-04-08T12:16:18.730Z,21.9
2024-04-08T12:21:24.962Z,21.9
2024-04-08T12:26:31.152Z,21.9
2024-04-08T12:31:37.364Z,21.8
2024-04-08T12:36:43.575Z,21.8
2024-04-08T12:41:49.865Z,21.7
2024-04-08T12:46:55.988Z,21.7
2024-04-08T12:52:02.224Z,21.6
2024-04-08T12:57:08.448Z,21.6
2024-04-08T13:02:14.665Z,21.5
2024-04-08T13:07:20.825Z,21.5
2024-04-08T13:12:27.080Z,21.5
2024-04-08T13:17:33.294Z,21.5
2024-04-08T13:22:39.442Z,21.6
2024-04-08T13:27:45.654Z,21.6
2024-04-08T13:32:52.027Z,21.6
2024-04-08T13:37:58.068Z,21.7
2024-04-08T13:43:04.274Z,21.8
2024-04-08T13:48:10.526Z,21.9
2024-04-08T13:53:16.692Z,22.0
2024-04-08T13:58:22.906Z,22.1
2024-04-08T14:03:29.463Z,22.3
2024-04-08T14:08:35.324Z,22.4
2024-04-08T14:13:41.532Z,22.5
2024-04-08T14:18:47.790Z,22.7
2024-04-08T14:23:53.992Z,22.9
2024-04-08T14:29:00.165Z,22.9
2024-04-08T14:34:06.487Z,22.9
2024-04-08T14:39:28.108Z,22.9
2024-04-08T14:49:25.032Z,23.0
2024-04-08T14:54:31.464Z,23.1
2024-04-08T14:59:37.422Z,23.3
2024-04-08T15:04:43.627Z,23.4
2024-04-08T15:09:49.831Z,23.6
2024-04-08T15:14:56.076Z,23.7
2024-04-08T15:20:02.279Z,23.8
2024-04-08T15:25:08.478Z,23.8
2024-04-08T15:30:14.730Z,23.9
2024-04-08T15:35:20.891Z,23.9
2024-04-08T15:40:27.103Z,24.0
2024-04-08T15:45:33.340Z,24.0
2024-04-08T15:50:39.526Z,24.1
2024-04-08T15:55:45.747Z,24.1
2024-04-08T16:00:51.962Z,24.2
2024-04-08T16:05:58.226Z,24.1
2024-04-08T16:11:04.377Z,24.1
2024-04-08T16:16:10.585Z,24.1
2024-04-08T16:21:16.984Z,24.1
2024-04-08T16:26:23.053Z,24.1
2024-04-08T16:31:28.249Z,24.0
2024-04-08T16:36:34.697Z,23.9
2024-04-08T16:41:40.650Z,23.8
2024-04-08T16:46:46.932Z,23.8
2024-04-08T16:51:53.079Z,23.7
2024-04-08T16:56:59.341Z,23.7
2024-04-08T17:02:05.511Z,23.7
2024-04-08T17:07:11.704Z,23.6
2024-04-08T17:12:18.024Z,23.6
2024-04-08T17:17:24.212Z,23.5
2024-04-08T17:22:30.331Z,23.4
2024-04-08T17:27:36.582Z,23.3
2024-04-08T17:32:42.866Z,23.2
2024-04-08T17:37:49.034Z,23.1
2024-04-08T17:42:55.234Z,23.0
2024-04-08T17:48:01.547Z,22.9
2024-04-08T17:53:07.584Z,22.7
2024-04-08T17:58:13.793Z,22.6
2024-04-08T18:03:20.066Z,22.5
2024-04-08T18:08:26.212Z,22.4
2024-04-08T18:13:32.444Z,22.3
2024-04-08T18:18:38.722Z,22.1
2024-04-08T18:23:44.856Z,22.0
2024-04-08T18:28:51.040Z,21.9
2024-04-08T18:33:57.321Z,21.7
2024-04-08T18:39:03.521Z,21.6
2024-04-08T18:44:09.687Z,21.4
2024-04-08T18:49:15.934Z,21.3
2024-04-08T18:54:22.135Z,21.1
2024-04-08T18:59:28.324Z,20.9
2024-04-08T19:04:34.703Z,20.8
2024-04-08T19:09:40.774Z,20.7
2024-04-08T19:14:46.922Z,20.5
2024-04-08T19:19:53.133Z,20.4
2024-04-08T19:25:01.447Z,20.3
2024-04-08T19:30:05.622Z,20.2
2024-04-08T19:35:11.758Z,20.1
2024-04-08T19:40:17.981Z,20.0
2024-04-08T19:45:29.544Z,19.9
2024-04-08T19:50:30.720Z,19.8
2024-04-08T20:00:42.927Z,19.5
2024-04-08T20:05:49.154Z,19.4
2024-04-08T20:10:55.238Z,19.3
2024-04-08T20:16:01.442Z,19.3
2024-04-08T20:21:07.696Z,19.2
2024-04-08T20:26:13.852Z,19.1
2024-04-08T20:31:20.055Z,19.0
2024-04-08T20:36:26.282Z,19.0
2024-04-08T20:41:32.466Z,18.9
2024-04-08T20:46:38.674Z,18.8
2024-04-08T20:51:51.806Z,18.7
2024-04-08T20:56:51.122Z,18.7
2024-04-08T21:01:57.301Z,18.6
2024-04-08T21:07:03.508Z,18.6
2024-04-08T21:12:09.764Z,18.5
2024-04-08T21:17:15.987Z,18.5
2024-04-08T21:22:22.134Z,18.5
2024-04-08T21:27:28.503Z,18.5
2024-04-08T21:32:34.627Z,18.5
2024-04-08T21:37:40.774Z,18.5
2024-04-08T21:42:46.991Z,18.5
2024-04-08T21:47:53.278Z,18.4
2024-04-08T21:52:59.379Z,18.5
2024-04-08T21:58:05.588Z,18.5
2024-04-08T22:08:17.020Z,18.5
2024-04-08T22:13:23.230Z,18.5
2024-04-08T22:18:29.519Z,18.5
2024-04-08T22:23:35.646Z,18.5
2024-04-08T22:28:41.861Z,18.5
2024-04-08T22:33:47.310Z,18.5
2024-04-08T22:38:53.399Z,18.5
2024-04-08T22:43:59.507Z,18.6
2024-04-08T22:49:05.818Z,18.6
2024-04-08T22:54:11.975Z,18.6
2024-04-08T22:59:18.134Z,18.6
2024-04-08T23:04:24.404Z,18.6
2024-04-08T23:09:30.628Z,18.6
2024-04-08T23:14:36.762Z,18.6
2024-04-08T23:19:43.059Z,18.6
2024-04-08T23:24:49.186Z,18.6
2024-04-08T23:29:55.420Z,18.5
2024-04-08T23:35:01.683Z,18.5
2024-04-08T23:40:07.803Z,18.4
2024-04-08T23:45:14.089Z,18.3
2024-04-08T23:50:20.218Z,18.2
2024-04-08T23:55:26.417Z,18.2
